createdAt,value
2019-02-19T05:44:00.730Z,99.90
2019-02-19T05:46:31.958Z,99.90
2019-02-19T05:49:01.150Z,99.90
2019-02-19T05:51:30.300Z,99.90
2019-02-19T05:53:59.566Z,99.90
2019-02-19T05:56:28.774Z,99.90
2019-02-19T05:58:58.126Z,99.90
2019-02-19T06:01:27.315Z,99.90
2019-02-19T06:03:56.578Z,99.90
2019-02-19T06:06:25.762Z,99.90
2019-02-19T06:08:54.912Z,99.90
2019-02-19T06:11:24.180Z,99.90
2019-02-19T06:13:53.363Z,99.90
2019-02-19T06:16:22.618Z,99.90
2019-02-19T06:18:51.795Z,99.90
2019-02-19T06:21:21.347Z,99.90
2019-02-19T06:23:52.597Z,99.90
2019-02-19T06:26:21.436Z,99.90
2019-02-19T06:28:50.870Z,99.90
2019-02-19T06:31:21.677Z,99.90
2019-02-19T06:33:50.950Z,99.90
2019-02-19T06:36:20.195Z,99.90
2019-02-19T06:38:49.364Z,99.90
2019-02-19T06:41:18.674Z,99.90
2019-02-19T06:43:47.855Z,99.90
2019-02-19T06:46:17.129Z,99.90
2019-02-19T06:48:46.288Z,99.90
2019-02-19T06:51:15.447Z,99.90
2019-02-19T06:53:44.662Z,99.90
2019-02-19T06:56:13.927Z,99.90
2019-02-19T06:58:43.169Z,99.90
2019-02-19T07:01:13.107Z,99.90
2019-02-19T07:03:56.007Z,99.90
2019-02-19T07:06:25.275Z,99.90
2019-02-19T07:08:54.446Z,99.90
2019-02-19T07:11:23.938Z,99.90
2019-02-19T07:13:53.197Z,99.90
2019-02-19T07:16:22.355Z,99.90
2019-02-19T07:18:51.625Z,99.90
2019-02-19T07:21:20.827Z,99.90
2019-02-19T07:23:50.094Z,99.90
2019-02-19T07:26:19.256Z,99.90
2019-02-19T07:28:48.460Z,99.90
2019-02-19T07:31:17.814Z,99.90
2019-02-19T07:33:47.063Z,99.90
2019-02-19T07:36:16.604Z,99.90
2019-02-19T07:38:46.101Z,99.90
2019-02-19T07:41:15.349Z,99.90
2019-02-19T07:43:44.523Z,99.90
2019-02-19T07:46:13.716Z,99.90
2019-02-19T07:48:42.915Z,99.90
2019-02-19T07:51:12.157Z,99.90
2019-02-19T07:53:41.421Z,99.90
2019-02-19T07:56:10.606Z,99.90
2019-02-19T07:58:39.876Z,99.90
2019-02-19T08:01:09.132Z,99.90
2019-02-19T08:03:38.342Z,99.90
2019-02-19T08:06:07.587Z,99.90
2019-02-19T08:08:36.792Z,99.90
2019-02-19T08:11:06.048Z,99.90
2019-02-19T08:13:35.360Z,99.90
2019-02-19T08:16:04.560Z,99.90
2019-02-19T08:18:33.712Z,99.90
2019-02-19T08:21:02.893Z,99.90
2019-02-19T08:23:32.287Z,99.90
2019-02-19T08:26:01.468Z,99.90
2019-02-19T08:28:31.189Z,99.90
2019-02-19T08:31:00.507Z,99.90
2019-02-19T08:33:29.655Z,99.90
2019-02-19T08:35:58.888Z,99.90
2019-02-19T08:38:28.158Z,99.80
2019-02-19T08:40:57.550Z,95.90
2019-02-19T08:43:26.727Z,91.80
2019-02-19T08:45:56.160Z,85.10
2019-02-19T08:48:25.365Z,79.00
2019-02-19T08:50:54.572Z,75.40
2019-02-19T08:53:23.747Z,72.50
2019-02-19T08:55:53.085Z,71.00
2019-02-19T08:58:22.403Z,65.70
2019-02-19T09:00:51.820Z,61.80
2019-02-19T09:03:21.242Z,59.80
2019-02-19T09:05:50.425Z,58.20
2019-02-19T09:08:20.266Z,56.80
2019-02-19T09:10:49.453Z,55.00
2019-02-19T09:13:18.719Z,53.90
2019-02-19T09:15:47.951Z,54.70
2019-02-19T09:18:17.351Z,53.40
2019-02-19T09:20:46.638Z,53.70
2019-02-19T09:23:16.012Z,52.00
2019-02-19T09:25:45.181Z,50.90
2019-02-19T09:28:14.665Z,49.70
2019-02-19T09:30:43.988Z,49.10
2019-02-19T09:33:13.269Z,49.90
2019-02-19T09:35:42.443Z,49.70
2019-02-19T09:38:11.683Z,48.80
2019-02-19T09:40:40.892Z,49.20
2019-02-19T09:43:10.425Z,48.50
2019-02-19T09:45:39.717Z,48.00
2019-02-19T09:48:08.910Z,47.00
2019-02-19T09:50:38.167Z,48.10
2019-02-19T09:53:07.390Z,48.60
2019-02-19T09:55:36.631Z,48.50
2019-02-19T09:58:07.056Z,47.60
2019-02-19T10:00:36.260Z,49.30
2019-02-19T10:03:05.658Z,48.40
2019-02-19T10:05:34.908Z,47.60
2019-02-19T10:08:04.358Z,47.70
2019-02-19T10:10:33.615Z,48.20
2019-02-19T10:13:03.103Z,46.60
2019-02-19T10:15:32.380Z,45.70
2019-02-19T10:18:09.729Z,45.70
2019-02-19T10:20:32.473Z,45.40
2019-02-19T10:23:01.729Z,45.70
2019-02-19T10:25:31.036Z,45.90
2019-02-19T10:28:00.273Z,44.50
2019-02-19T10:30:29.494Z,46.30
2019-02-19T10:32:58.813Z,46.00
2019-02-19T10:35:28.117Z,45.60
2019-02-19T10:37:57.395Z,46.50
2019-02-19T10:40:26.698Z,46.60
2019-02-19T10:42:55.988Z,46.60
2019-02-19T10:45:25.436Z,46.70
2019-02-19T10:47:54.766Z,47.60
2019-02-19T10:50:23.994Z,47.60
2019-02-19T10:52:53.152Z,47.20
2019-02-19T10:55:22.327Z,46.70
2019-02-19T10:57:51.528Z,48.80
2019-02-19T11:00:21.616Z,48.10
2019-02-19T11:02:50.808Z,47.60
2019-02-19T11:05:20.158Z,48.20
2019-02-19T11:07:49.422Z,47.80
2019-02-19T11:10:18.677Z,47.80
2019-02-19T11:12:47.864Z,49.50
2019-02-19T11:15:17.574Z,49.90
2019-02-19T11:17:46.809Z,49.70
2019-02-19T11:20:16.068Z,49.40
2019-02-19T11:22:45.263Z,49.80
2019-02-19T11:25:14.471Z,49.90
2019-02-19T11:27:43.632Z,49.90
2019-02-19T11:30:14.797Z,50.60
2019-02-19T11:32:43.983Z,51.50
2019-02-19T11:35:13.145Z,52.00
2019-02-19T11:37:42.532Z,53.60
2019-02-19T11:40:12.591Z,54.80
2019-02-19T11:42:41.868Z,55.20
2019-02-19T11:45:13.222Z,56.20
2019-02-19T11:47:42.668Z,56.80
2019-02-19T11:50:12.797Z,57.60
2019-02-19T11:52:41.951Z,58.60
2019-02-19T11:55:12.516Z,57.00
2019-02-19T11:57:41.800Z,58.40
2019-02-19T12:00:14.996Z,58.30
2019-02-19T12:02:44.264Z,60.00
2019-02-19T12:05:13.602Z,62.50
2019-02-19T12:07:42.894Z,66.40
2019-02-19T12:10:12.397Z,69.70
2019-02-19T12:12:41.806Z,74.00
2019-02-19T12:15:12.301Z,77.20
2019-02-19T12:17:41.548Z,81.70
2019-02-19T12:20:10.853Z,81.30
2019-02-19T12:22:40.183Z,84.10
2019-02-19T12:25:10.938Z,88.50
2019-02-19T12:27:40.625Z,91.30
2019-02-19T12:30:18.443Z,90.10
2019-02-19T12:32:47.762Z,91.10
2019-02-19T12:35:16.926Z,93.30
2019-02-19T12:37:46.105Z,94.50
2019-02-19T12:40:15.742Z,95.40
2019-02-19T12:42:45.280Z,95.40
2019-02-19T12:45:14.611Z,95.00
2019-02-19T12:47:43.910Z,96.20
2019-02-19T12:50:14.202Z,96.90
2019-02-19T12:52:43.479Z,97.20
2019-02-19T12:55:12.803Z,97.30
2019-02-19T12:57:42.101Z,97.60
2019-02-19T13:00:13.691Z,97.90
2019-02-19T13:02:44.162Z,97.90
2019-02-19T13:05:14.695Z,96.40
2019-02-19T13:07:44.064Z,96.00
2019-02-19T13:10:13.816Z,95.40
2019-02-19T13:12:43.079Z,94.20
2019-02-19T13:15:13.885Z,94.50
2019-02-19T13:17:45.385Z,94.80
2019-02-19T13:20:16.078Z,95.00
2019-02-19T13:22:47.280Z,94.80
2019-02-19T13:25:18.379Z,94.80
2019-02-19T13:27:47.752Z,93.90
2019-02-19T13:30:17.420Z,93.30
2019-02-19T13:32:46.805Z,92.60
2019-02-19T13:35:17.373Z,92.60
2019-02-19T13:37:46.800Z,92.10
2019-02-19T13:40:16.181Z,92.50
2019-02-19T13:42:45.631Z,92.40
2019-02-19T13:45:15.381Z,92.00
2019-02-19T13:47:46.018Z,91.10
2019-02-19T13:50:17.955Z,91.90
2019-02-19T13:53:09.314Z,91.60
2019-02-19T13:55:42.802Z,90.90
2019-02-19T13:58:12.821Z,91.50
2019-02-19T14:00:43.457Z,91.30
2019-02-19T14:03:12.701Z,91.50
2019-02-19T14:05:42.029Z,91.70
2019-02-19T14:08:14.680Z,91.90
2019-02-19T14:10:42.360Z,92.30
2019-02-19T14:13:11.613Z,92.50
2019-02-19T14:15:47.725Z,93.30
2019-02-19T14:18:21.099Z,93.80
2019-02-19T14:21:15.840Z,93.10
2019-02-19T14:24:02.719Z,93.90
2019-02-19T14:26:43.423Z,92.50
2019-02-19T14:29:32.849Z,92.50
2019-02-19T14:32:40.028Z,92.20
2019-02-19T14:35:26.956Z,90.10
2019-02-19T14:38:17.940Z,90.10
2019-02-19T14:41:07.277Z,89.60
2019-02-19T14:44:01.790Z,90.50
2019-02-19T14:46:44.931Z,90.50
2019-02-19T14:49:37.269Z,88.80
2019-02-19T14:52:22.480Z,87.20
2019-02-19T14:55:09.495Z,89.00
2019-02-19T14:58:16.121Z,90.50
2019-02-19T15:01:08.743Z,91.10
2019-02-19T15:03:55.681Z,90.70
2019-02-19T15:06:43.901Z,91.10
2019-02-19T15:09:26.537Z,91.90
2019-02-19T15:12:23.682Z,93.40
2019-02-19T15:15:03.720Z,93.90
2019-02-19T15:17:46.228Z,94.70
2019-02-19T15:20:34.368Z,95.20
2019-02-19T15:23:32.653Z,96.20
2019-02-19T15:26:23.653Z,97.60
2019-02-19T15:29:30.179Z,98.60
2019-02-19T15:32:17.179Z,99.80
2019-02-19T15:35:03.778Z,99.90
2019-02-19T15:37:52.057Z,99.90
2019-02-19T15:40:44.990Z,99.90
2019-02-19T15:43:32.377Z,99.90
2019-02-19T15:46:27.866Z,99.90
2019-02-19T15:49:17.293Z,99.90
2019-02-19T15:52:01.395Z,99.90
2019-02-19T15:55:01.742Z,99.90
2019-02-19T15:57:52.833Z,99.90
2019-02-19T16:00:34.959Z,99.90
2019-02-19T16:03:14.259Z,99.90
2019-02-19T16:06:01.258Z,99.90
2019-02-19T16:08:52.344Z,99.90
2019-02-19T16:11:58.261Z,99.90
2019-02-19T16:14:46.486Z,99.90
2019-02-19T16:17:37.033Z,99.90
2019-02-19T16:20:36.567Z,99.90
2019-02-19T16:23:37.211Z,99.90
2019-02-19T16:26:28.462Z,99.90
2019-02-19T16:29:17.087Z,99.90
2019-02-19T16:32:06.324Z,99.90
2019-02-19T16:34:58.700Z,99.90
2019-02-19T16:37:53.157Z,99.90
2019-02-19T16:40:45.306Z,99.90
2019-02-19T16:43:43.977Z,99.90
2019-02-19T16:46:26.388Z,99.90
2019-02-19T16:49:30.411Z,99.90
2019-02-19T16:52:15.190Z,99.90
2019-02-19T16:54:54.788Z,99.90
2019-02-19T16:57:30.100Z,99.90
2019-02-19T17:00:17.246Z,99.90
2019-02-19T17:03:14.797Z,99.90
2019-02-19T17:06:18.357Z,99.90
2019-02-19T17:09:24.653Z,99.90
2019-02-19T17:12:03.211Z,99.90
2019-02-19T17:14:54.279Z,99.90
2019-02-19T17:17:40.018Z,99.90
2019-02-19T17:20:37.543Z,99.90
2019-02-19T17:23:22.178Z,99.90
2019-02-19T17:26:06.583Z,99.90
2019-02-19T17:29:04.113Z,99.90
2019-02-19T17:32:03.903Z,99.90
2019-02-19T17:34:50.945Z,99.90
2019-02-19T17:37:39.209Z,99.90
2019-02-19T17:40:24.271Z,99.90
2019-02-19T17:43:17.153Z,99.90
2019-02-19T17:45:52.808Z,99.90
2019-02-19T17:48:47.280Z,99.90
2019-02-19T17:51:41.676Z,99.90
2019-02-19T17:54:28.797Z,99.90
2019-02-19T17:57:15.961Z,99.90
2019-02-19T18:00:02.838Z,99.90
2019-02-19T18:02:51.364Z,99.90
2019-02-19T18:05:37.508Z,99.90
2019-02-19T18:08:24.606Z,99.90
2019-02-19T18:11:12.042Z,99.90
2019-02-19T18:13:47.459Z,99.90
2019-02-19T18:16:41.712Z,99.90
2019-02-19T18:19:10.890Z,99.90
2019-02-19T18:21:41.958Z,99.90
2019-02-19T18:24:11.573Z,99.90
2019-02-19T18:26:40.741Z,99.90
2019-02-19T18:29:10.044Z,99.90
2019-02-19T18:31:39.427Z,99.90
2019-02-19T18:34:08.830Z,99.90
2019-02-19T18:36:39.877Z,99.90
2019-02-19T18:39:09.227Z,99.90
2019-02-19T18:41:38.577Z,99.90
2019-02-19T18:44:07.824Z,99.90
2019-02-19T18:46:37.151Z,99.90
2019-02-19T18:49:06.559Z,99.90
2019-02-19T18:51:35.887Z,99.90
2019-02-19T18:54:05.540Z,99.90
2019-02-19T18:56:34.856Z,99.90
2019-02-19T18:59:04.139Z,99.90
2019-02-19T19:01:33.446Z,99.90
2019-02-19T19:04:02.724Z,99.90
2019-02-19T19:06:31.974Z,99.90
2019-02-19T19:09:01.207Z,99.90
2019-02-19T19:11:32.198Z,99.90
2019-02-19T19:14:01.566Z,99.90
2019-02-19T19:16:31.930Z,99.90
2019-02-19T19:19:01.427Z,99.90
2019-02-19T19:21:30.733Z,99.90
2019-02-19T19:23:59.982Z,99.90
2019-02-19T19:26:29.354Z,99.90
2019-02-19T19:28:58.624Z,99.90
2019-02-19T19:31:33.354Z,99.90
2019-02-19T19:33:59.034Z,99.90
2019-02-19T19:36:28.306Z,99.90
2019-02-19T19:38:57.653Z,99.90
2019-02-19T19:41:26.933Z,99.90
2019-02-19T19:43:56.152Z,99.90
2019-02-19T19:46:25.439Z,99.90
2019-02-19T19:48:55.164Z,99.90
2019-02-19T19:51:24.511Z,99.90
2019-02-19T19:53:54.068Z,99.90
2019-02-19T19:56:23.340Z,99.90
2019-02-19T19:58:52.656Z,99.90
2019-02-19T20:01:21.977Z,99.90
2019-02-19T20:03:51.224Z,99.90
2019-02-19T20:06:20.704Z,99.90
2019-02-19T20:08:49.948Z,99.90
2019-02-19T20:11:19.248Z,99.90
2019-02-19T20:13:48.649Z,99.90
2019-02-19T20:16:18.082Z,99.90
2019-02-19T20:18:47.481Z,99.90
2019-02-19T20:21:16.741Z,99.90
2019-02-19T20:23:46.051Z,99.90
2019-02-19T20:26:15.522Z,99.90
2019-02-19T20:28:44.826Z,99.90
2019-02-19T20:31:14.103Z,99.90
2019-02-19T20:33:43.355Z,99.90
2019-02-19T20:36:12.571Z,99.90
2019-02-19T20:38:42.144Z,99.90
2019-02-19T20:41:11.509Z,99.90
2019-02-19T20:43:40.854Z,99.90
2019-02-19T20:46:10.078Z,99.90
2019-02-19T20:48:39.445Z,99.90
2019-02-19T20:51:08.844Z,99.90
2019-02-19T20:53:38.051Z,99.90
2019-02-19T20:56:07.324Z,99.90
2019-02-19T20:58:36.592Z,99.90
2019-02-19T21:01:05.905Z,99.90
2019-02-19T21:03:35.080Z,99.90
2019-02-19T21:06:05.946Z,99.90
2019-02-19T21:08:35.207Z,99.90
2019-02-19T21:11:04.563Z,99.90
2019-02-19T21:13:33.858Z,99.90
2019-02-19T21:16:03.338Z,99.90
2019-02-19T21:18:32.619Z,99.90
2019-02-19T21:21:01.903Z,99.90
2019-02-19T21:23:31.084Z,99.90
2019-02-19T21:26:00.353Z,99.90
2019-02-19T21:28:29.645Z,99.90
2019-02-19T21:30:58.856Z,99.90
2019-02-19T21:33:28.151Z,99.90
2019-02-19T21:35:57.976Z,99.90
2019-02-19T21:38:27.618Z,99.90
2019-02-19T21:40:56.809Z,99.90
2019-02-19T21:43:26.056Z,99.90
2019-02-19T21:45:55.255Z,99.90
2019-02-19T21:48:24.488Z,99.90
2019-02-19T21:50:56.227Z,99.90
2019-02-19T21:53:25.515Z,99.90
2019-02-19T21:55:54.896Z,99.90
2019-02-19T21:58:24.340Z,99.90
2019-02-19T22:00:53.560Z,99.90
2019-02-19T22:03:24.248Z,99.90
2019-02-19T22:05:53.438Z,99.90
2019-02-19T22:08:22.741Z,99.90
2019-02-19T22:10:53.832Z,99.90
2019-02-19T22:13:24.989Z,99.90
2019-02-19T22:15:54.357Z,99.90
2019-02-19T22:18:23.605Z,99.90
2019-02-19T22:21:01.254Z,99.90
2019-02-19T22:23:30.505Z,99.90
2019-02-19T22:25:59.827Z,99.90
2019-02-19T22:28:29.105Z,99.90
